sensor_id;sensor_type;location;lat;lon;timestamp;temperature;humidity
22098;DHT22;11215;51.938;8.464;2023-04-20T00:02:10;12.80;40.40
22098;DHT22;11215;51.938;8.464;2023-04-20T00:04:39;12.80;39.70
22098;DHT22;11215;51.938;8.464;2023-04-20T00:07:07;12.80;39.70
22098;DHT22;11215;51.938;8.464;2023-04-20T00:09:35;12.80;39.80
22098;DHT22;11215;51.938;8.464;2023-04-20T00:12:01;12.80;39.90
22098;DHT22;11215;51.938;8.464;2023-04-20T00:14:26;12.80;40.00
22098;DHT22;11215;51.938;8.464;2023-04-20T00:16:52;12.80;40.00
22098;DHT22;11215;51.938;8.464;2023-04-20T00:19:18;12.80;40.10
22098;DHT22;11215;51.938;8.464;2023-04-20T00:21:46;12.70;40.30
22098;DHT22;11215;51.938;8.464;2023-04-20T00:24:11;12.70;40.50
22098;DHT22;11215;51.938;8.464;2023-04-20T00:26:37;12.70;40.50
22098;DHT22;11215;51.938;8.464;2023-04-20T00:29:03;12.70;40.70
22098;DHT22;11215;51.938;8.464;2023-04-20T00:31:29;12.70;40.80
22098;DHT22;11215;51.938;8.464;2023-04-20T00:33:55;12.70;40.80
22098;DHT22;11215;51.938;8.464;2023-04-20T00:36:21;12.70;40.80
22098;DHT22;11215;51.938;8.464;2023-04-20T00:38:46;12.70;40.90
22098;DHT22;11215;51.938;8.464;2023-04-20T00:41:12;12.70;41.00
22098;DHT22;11215;51.938;8.464;2023-04-20T00:43:48;12.60;41.20
22098;DHT22;11215;51.938;8.464;2023-04-20T00:46:14;12.60;41.70
22098;DHT22;11215;51.938;8.464;2023-04-20T00:48:41;12.60;41.40
22098;DHT22;11215;51.938;8.464;2023-04-20T00:51:07;12.60;41.60
22098;DHT22;11215;51.938;8.464;2023-04-20T00:53:35;12.60;41.80
22098;DHT22;11215;51.938;8.464;2023-04-20T00:56:01;12.60;42.00
22098;DHT22;11215;51.938;8.464;2023-04-20T00:58:27;12.60;41.90
22098;DHT22;11215;51.938;8.464;2023-04-20T01:00:53;12.60;42.00
22098;DHT22;11215;51.938;8.464;2023-04-20T01:03:18;12.60;42.20
22098;DHT22;11215;51.938;8.464;2023-04-20T01:05:45;12.50;42.40
22098;DHT22;11215;51.938;8.464;2023-04-20T01:08:10;12.50;42.60
22098;DHT22;11215;51.938;8.464;2023-04-20T01:10:36;12.50;42.90
22098;DHT22;11215;51.938;8.464;2023-04-20T01:13:02;12.50;43.00
22098;DHT22;11215;51.938;8.464;2023-04-20T01:15:28;12.50;43.10
22098;DHT22;11215;51.938;8.464;2023-04-20T01:17:53;12.50;43.30
22098;DHT22;11215;51.938;8.464;2023-04-20T01:20:19;12.50;43.50
22098;DHT22;11215;51.938;8.464;2023-04-20T01:22:49;12.50;43.60
22098;DHT22;11215;51.938;8.464;2023-04-20T01:25:16;12.40;44.00
22098;DHT22;11215;51.938;8.464;2023-04-20T01:27:42;12.40;44.00
22098;DHT22;11215;51.938;8.464;2023-04-20T01:30:09;12.40;44.40
22098;DHT22;11215;51.938;8.464;2023-04-20T01:32:35;12.40;44.60
22098;DHT22;11215;51.938;8.464;2023-04-20T01:35:02;12.30;44.70
22098;DHT22;11215;51.938;8.464;2023-04-20T01:37:28;12.30;45.10
22098;DHT22;11215;51.938;8.464;2023-04-20T01:39:54;12.30;45.10
22098;DHT22;11215;51.938;8.464;2023-04-20T01:42:21;12.20;45.30
22098;DHT22;11215;51.938;8.464;2023-04-20T01:44:47;12.20;45.60
22098;DHT22;11215;51.938;8.464;2023-04-20T01:47:12;12.10;45.50
22098;DHT22;11215;51.938;8.464;2023-04-20T01:49:38;12.10;46.10
22098;DHT22;11215;51.938;8.464;2023-04-20T01:52:05;12.00;46.10
22098;DHT22;11215;51.938;8.464;2023-04-20T01:54:31;12.00;46.10
22098;DHT22;11215;51.938;8.464;2023-04-20T01:56:57;11.90;46.40
22098;DHT22;11215;51.938;8.464;2023-04-20T01:59:22;11.90;46.40
22098;DHT22;11215;51.938;8.464;2023-04-20T02:01:48;11.90;46.70
22098;DHT22;11215;51.938;8.464;2023-04-20T02:04:14;11.80;46.70
22098;DHT22;11215;51.938;8.464;2023-04-20T02:06:39;11.80;46.70
22098;DHT22;11215;51.938;8.464;2023-04-20T02:09:08;11.80;47.10
22098;DHT22;11215;51.938;8.464;2023-04-20T02:11:44;11.80;47.50
22098;DHT22;11215;51.938;8.464;2023-04-20T02:14:10;11.70;47.40
22098;DHT22;11215;51.938;8.464;2023-04-20T02:16:38;11.70;47.30
22098;DHT22;11215;51.938;8.464;2023-04-20T02:19:04;11.70;47.20
22098;DHT22;11215;51.938;8.464;2023-04-20T02:21:29;11.70;47.50
22098;DHT22;11215;51.938;8.464;2023-04-20T02:23:55;11.70;47.60
22098;DHT22;11215;51.938;8.464;2023-04-20T02:26:21;11.60;47.40
22098;DHT22;11215;51.938;8.464;2023-04-20T02:28:50;11.60;47.50
22098;DHT22;11215;51.938;8.464;2023-04-20T02:31:16;11.60;47.50
22098;DHT22;11215;51.938;8.464;2023-04-20T02:33:44;11.50;47.60
22098;DHT22;11215;51.938;8.464;2023-04-20T02:36:12;11.60;47.70
22098;DHT22;11215;51.938;8.464;2023-04-20T02:38:37;11.50;47.70
22098;DHT22;11215;51.938;8.464;2023-04-20T02:41:03;11.50;47.70
22098;DHT22;11215;51.938;8.464;2023-04-20T02:43:29;11.40;47.80
22098;DHT22;11215;51.938;8.464;2023-04-20T02:45:55;11.40;47.90
22098;DHT22;11215;51.938;8.464;2023-04-20T02:48:20;11.30;48.40
22098;DHT22;11215;51.938;8.464;2023-04-20T02:50:46;11.30;48.50
22098;DHT22;11215;51.938;8.464;2023-04-20T02:53:12;11.30;48.60
22098;DHT22;11215;51.938;8.464;2023-04-20T02:55:37;11.30;48.70
22098;DHT22;11215;51.938;8.464;2023-04-20T02:58:03;11.30;49.10
22098;DHT22;11215;51.938;8.464;2023-04-20T03:00:28;11.30;49.10
22098;DHT22;11215;51.938;8.464;2023-04-20T03:02:54;11.30;48.70
22098;DHT22;11215;51.938;8.464;2023-04-20T03:05:20;11.30;48.70
22098;DHT22;11215;51.938;8.464;2023-04-20T03:07:46;11.20;49.00
22098;DHT22;11215;51.938;8.464;2023-04-20T03:10:11;11.20;48.90
22098;DHT22;11215;51.938;8.464;2023-04-20T03:12:37;11.20;48.90
22098;DHT22;11215;51.938;8.464;2023-04-20T03:15:03;11.20;48.90
22098;DHT22;11215;51.938;8.464;2023-04-20T03:17:32;11.20;49.10
22098;DHT22;11215;51.938;8.464;2023-04-20T03:19:57;11.10;49.10
22098;DHT22;11215;51.938;8.464;2023-04-20T03:22:26;11.10;49.10
22098;DHT22;11215;51.938;8.464;2023-04-20T03:24:52;11.10;49.70
22098;DHT22;11215;51.938;8.464;2023-04-20T03:27:17;11.00;49.40
22098;DHT22;11215;51.938;8.464;2023-04-20T03:29:43;11.00;49.50
22098;DHT22;11215;51.938;8.464;2023-04-20T03:32:09;11.00;49.80
22098;DHT22;11215;51.938;8.464;2023-04-20T03:34:34;11.00;49.80
22098;DHT22;11215;51.938;8.464;2023-04-20T03:37:01;11.00;49.70
22098;DHT22;11215;51.938;8.464;2023-04-20T03:39:26;11.00;50.00
22098;DHT22;11215;51.938;8.464;2023-04-20T03:41:52;10.90;50.00
22098;DHT22;11215;51.938;8.464;2023-04-20T03:44:17;10.90;50.20
22098;DHT22;11215;51.938;8.464;2023-04-20T03:46:43;10.90;50.40
22098;DHT22;11215;51.938;8.464;2023-04-20T03:49:09;10.90;50.50
22098;DHT22;11215;51.938;8.464;2023-04-20T03:51:34;10.90;50.50
22098;DHT22;11215;51.938;8.464;2023-04-20T03:54:00;10.90;50.50
22098;DHT22;11215;51.938;8.464;2023-04-20T03:56:26;10.90;50.60
22098;DHT22;11215;51.938;8.464;2023-04-20T03:58:51;10.90;51.00
22098;DHT22;11215;51.938;8.464;2023-04-20T04:01:17;10.80;51.00
22098;DHT22;11215;51.938;8.464;2023-04-20T04:03:43;10.90;51.00
22098;DHT22;11215;51.938;8.464;2023-04-20T04:06:09;10.80;51.00
22098;DHT22;11215;51.938;8.464;2023-04-20T04:08:35;10.80;51.00
22098;DHT22;11215;51.938;8.464;2023-04-20T04:11:00;10.80;51.00
22098;DHT22;11215;51.938;8.464;2023-04-20T04:13:26;10.80;51.30
22098;DHT22;11215;51.938;8.464;2023-04-20T04:15:52;10.80;51.30
22098;DHT22;11215;51.938;8.464;2023-04-20T04:18:18;10.80;51.50
22098;DHT22;11215;51.938;8.464;2023-04-20T04:20:44;10.80;51.60
22098;DHT22;11215;51.938;8.464;2023-04-20T04:23:10;10.80;51.80
22098;DHT22;11215;51.938;8.464;2023-04-20T04:25:39;10.80;51.90
22098;DHT22;11215;51.938;8.464;2023-04-20T04:28:05;10.80;52.20
22098;DHT22;11215;51.938;8.464;2023-04-20T04:30:31;10.80;52.00
22098;DHT22;11215;51.938;8.464;2023-04-20T04:32:57;10.80;52.00
22098;DHT22;11215;51.938;8.464;2023-04-20T04:35:24;10.80;52.00
22098;DHT22;11215;51.938;8.464;2023-04-20T04:37:50;10.80;52.10
22098;DHT22;11215;51.938;8.464;2023-04-20T04:40:17;10.70;52.30
22098;DHT22;11215;51.938;8.464;2023-04-20T04:42:42;10.70;52.20
22098;DHT22;11215;51.938;8.464;2023-04-20T04:45:10;10.70;52.40
22098;DHT22;11215;51.938;8.464;2023-04-20T04:47:37;10.70;52.70
22098;DHT22;11215;51.938;8.464;2023-04-20T04:50:06;10.70;52.80
22098;DHT22;11215;51.938;8.464;2023-04-20T04:52:32;10.60;53.10
22098;DHT22;11215;51.938;8.464;2023-04-20T04:54:58;10.60;53.50
22098;DHT22;11215;51.938;8.464;2023-04-20T04:57:24;10.60;53.70
22098;DHT22;11215;51.938;8.464;2023-04-20T04:59:50;10.60;53.80
22098;DHT22;11215;51.938;8.464;2023-04-20T05:02:15;10.60;54.00
22098;DHT22;11215;51.938;8.464;2023-04-20T05:04:41;10.50;53.90
22098;DHT22;11215;51.938;8.464;2023-04-20T05:07:07;10.50;54.00
22098;DHT22;11215;51.938;8.464;2023-04-20T05:09:35;10.60;53.90
22098;DHT22;11215;51.938;8.464;2023-04-20T05:12:01;10.60;53.90
22098;DHT22;11215;51.938;8.464;2023-04-20T05:14:29;10.50;53.90
22098;DHT22;11215;51.938;8.464;2023-04-20T05:16:57;10.50;54.40
22098;DHT22;11215;51.938;8.464;2023-04-20T05:19:23;10.60;54.60
22098;DHT22;11215;51.938;8.464;2023-04-20T05:21:49;10.60;54.70
22098;DHT22;11215;51.938;8.464;2023-04-20T05:24:14;10.60;54.70
22098;DHT22;11215;51.938;8.464;2023-04-20T05:26:42;10.60;54.60
22098;DHT22;11215;51.938;8.464;2023-04-20T05:29:08;10.60;54.70
22098;DHT22;11215;51.938;8.464;2023-04-20T05:31:34;10.60;54.70
22098;DHT22;11215;51.938;8.464;2023-04-20T05:34:00;10.60;54.70
22098;DHT22;11215;51.938;8.464;2023-04-20T05:36:27;10.60;54.90
22098;DHT22;11215;51.938;8.464;2023-04-20T05:38:54;10.60;54.90
22098;DHT22;11215;51.938;8.464;2023-04-20T05:41:20;10.60;54.70
22098;DHT22;11215;51.938;8.464;2023-04-20T05:43:51;10.70;55.00
22098;DHT22;11215;51.938;8.464;2023-04-20T05:46:16;10.70;55.00
22098;DHT22;11215;51.938;8.464;2023-04-20T05:48:42;10.70;54.70
22098;DHT22;11215;51.938;8.464;2023-04-20T05:51:07;10.70;55.10
22098;DHT22;11215;51.938;8.464;2023-04-20T05:53:33;10.70;55.10
22098;DHT22;11215;51.938;8.464;2023-04-20T05:55:59;10.70;55.20
22098;DHT22;11215;51.938;8.464;2023-04-20T05:58:25;10.70;55.10
22098;DHT22;11215;51.938;8.464;2023-04-20T06:00:51;10.70;55.00
22098;DHT22;11215;51.938;8.464;2023-04-20T06:03:17;10.70;54.70
22098;DHT22;11215;51.938;8.464;2023-04-20T06:05:43;10.70;54.60
22098;DHT22;11215;51.938;8.464;2023-04-20T06:08:08;10.60;54.80
22098;DHT22;11215;51.938;8.464;2023-04-20T06:10:34;10.60;54.90
22098;DHT22;11215;51.938;8.464;2023-04-20T06:13:00;10.60;55.20
22098;DHT22;11215;51.938;8.464;2023-04-20T06:15:25;10.60;55.20
22098;DHT22;11215;51.938;8.464;2023-04-20T06:17:51;10.60;55.50
22098;DHT22;11215;51.938;8.464;2023-04-20T06:20:17;10.70;55.50
22098;DHT22;11215;51.938;8.464;2023-04-20T06:22:44;10.60;55.70
22098;DHT22;11215;51.938;8.464;2023-04-20T06:25:10;10.60;55.70
22098;DHT22;11215;51.938;8.464;2023-04-20T06:27:36;10.70;56.00
22098;DHT22;11215;51.938;8.464;2023-04-20T06:30:02;10.70;55.40
22098;DHT22;11215;51.938;8.464;2023-04-20T06:32:28;10.70;55.50
22098;DHT22;11215;51.938;8.464;2023-04-20T06:34:54;10.70;55.30
22098;DHT22;11215;51.938;8.464;2023-04-20T06:37:19;10.70;55.50
22098;DHT22;11215;51.938;8.464;2023-04-20T06:39:45;10.70;55.30
22098;DHT22;11215;51.938;8.464;2023-04-20T06:42:11;10.70;55.50
22098;DHT22;11215;51.938;8.464;2023-04-20T06:44:38;10.70;55.50
22098;DHT22;11215;51.938;8.464;2023-04-20T06:47:04;10.70;55.60
22098;DHT22;11215;51.938;8.464;2023-04-20T06:49:29;10.80;55.60
22098;DHT22;11215;51.938;8.464;2023-04-20T06:51:55;10.80;55.50
22098;DHT22;11215;51.938;8.464;2023-04-20T06:54:21;10.70;55.60
22098;DHT22;11215;51.938;8.464;2023-04-20T06:56:47;10.70;55.70
22098;DHT22;11215;51.938;8.464;2023-04-20T06:59:12;10.80;55.60
22098;DHT22;11215;51.938;8.464;2023-04-20T07:01:40;10.80;55.80
22098;DHT22;11215;51.938;8.464;2023-04-20T07:04:06;10.80;55.90
22098;DHT22;11215;51.938;8.464;2023-04-20T07:06:31;10.80;55.50
22098;DHT22;11215;51.938;8.464;2023-04-20T07:08:57;10.80;55.50
22098;DHT22;11215;51.938;8.464;2023-04-20T07:11:23;10.80;55.30
22098;DHT22;11215;51.938;8.464;2023-04-20T07:13:49;10.80;55.40
22098;DHT22;11215;51.938;8.464;2023-04-20T07:16:15;10.80;55.60
22098;DHT22;11215;51.938;8.464;2023-04-20T07:18:41;10.80;55.30
22098;DHT22;11215;51.938;8.464;2023-04-20T07:21:06;10.80;55.20
22098;DHT22;11215;51.938;8.464;2023-04-20T07:23:32;10.80;55.30
22098;DHT22;11215;51.938;8.464;2023-04-20T07:25:58;10.80;55.50
22098;DHT22;11215;51.938;8.464;2023-04-20T07:28:23;10.80;55.50
22098;DHT22;11215;51.938;8.464;2023-04-20T07:30:49;10.80;55.50
22098;DHT22;11215;51.938;8.464;2023-04-20T07:33:15;10.80;55.40
22098;DHT22;11215;51.938;8.464;2023-04-20T07:35:41;10.80;55.50
22098;DHT22;11215;51.938;8.464;2023-04-20T07:38:06;10.80;55.60
22098;DHT22;11215;51.938;8.464;2023-04-20T07:40:32;10.90;55.40
22098;DHT22;11215;51.938;8.464;2023-04-20T07:42:57;10.90;55.40
22098;DHT22;11215;51.938;8.464;2023-04-20T07:45:23;10.90;55.50
22098;DHT22;11215;51.938;8.464;2023-04-20T07:47:49;10.90;55.40
22098;DHT22;11215;51.938;8.464;2023-04-20T07:50:16;10.90;55.30
22098;DHT22;11215;51.938;8.464;2023-04-20T07:52:42;11.00;55.30
22098;DHT22;11215;51.938;8.464;2023-04-20T07:55:11;11.00;55.50
22098;DHT22;11215;51.938;8.464;2023-04-20T07:57:38;11.00;55.50
22098;DHT22;11215;51.938;8.464;2023-04-20T08:00:05;11.10;55.70
22098;DHT22;11215;51.938;8.464;2023-04-20T08:02:34;11.10;55.70
22098;DHT22;11215;51.938;8.464;2023-04-20T08:05:03;11.20;55.60
22098;DHT22;11215;51.938;8.464;2023-04-20T08:07:29;11.20;55.80
22098;DHT22;11215;51.938;8.464;2023-04-20T08:09:55;11.30;55.50
22098;DHT22;11215;51.938;8.464;2023-04-20T08:12:22;11.30;55.30
22098;DHT22;11215;51.938;8.464;2023-04-20T08:14:47;11.30;55.40
22098;DHT22;11215;51.938;8.464;2023-04-20T08:17:13;11.40;55.20
22098;DHT22;11215;51.938;8.464;2023-04-20T08:19:39;11.40;55.30
22098;DHT22;11215;51.938;8.464;2023-04-20T08:22:05;11.50;55.30
22098;DHT22;11215;51.938;8.464;2023-04-20T08:24:31;11.50;55.30
22098;DHT22;11215;51.938;8.464;2023-04-20T08:26:56;11.60;55.30
22098;DHT22;11215;51.938;8.464;2023-04-20T08:29:24;11.60;55.20
22098;DHT22;11215;51.938;8.464;2023-04-20T08:31:50;11.60;55.10
22098;DHT22;11215;51.938;8.464;2023-04-20T08:34:15;11.70;55.00
22098;DHT22;11215;51.938;8.464;2023-04-20T08:36:41;11.70;54.80
22098;DHT22;11215;51.938;8.464;2023-04-20T08:39:13;11.80;54.70
22098;DHT22;11215;51.938;8.464;2023-04-20T08:41:39;11.80;54.80
22098;DHT22;11215;51.938;8.464;2023-04-20T08:44:06;11.80;54.40
22098;DHT22;11215;51.938;8.464;2023-04-20T08:46:33;11.90;54.40
22098;DHT22;11215;51.938;8.464;2023-04-20T08:49:00;11.90;54.40
22098;DHT22;11215;51.938;8.464;2023-04-20T08:51:28;11.90;54.40
22098;DHT22;11215;51.938;8.464;2023-04-20T08:53:55;11.90;54.40
22098;DHT22;11215;51.938;8.464;2023-04-20T08:56:51;11.90;54.30
22098;DHT22;11215;51.938;8.464;2023-04-20T08:59:16;11.90;54.70
22098;DHT22;11215;51.938;8.464;2023-04-20T09:01:43;12.00;54.20
22098;DHT22;11215;51.938;8.464;2023-04-20T09:04:25;12.00;54.20
22098;DHT22;11215;51.938;8.464;2023-04-20T09:06:53;12.10;54.20
22098;DHT22;11215;51.938;8.464;2023-04-20T09:09:22;12.10;54.10
22098;DHT22;11215;51.938;8.464;2023-04-20T09:12:02;12.10;54.10
22098;DHT22;11215;51.938;8.464;2023-04-20T09:14:29;12.10;54.10
22098;DHT22;11215;51.938;8.464;2023-04-20T09:16:56;12.20;54.00
22098;DHT22;11215;51.938;8.464;2023-04-20T09:19:28;12.20;53.90
22098;DHT22;11215;51.938;8.464;2023-04-20T09:21:59;12.20;53.80
22098;DHT22;11215;51.938;8.464;2023-04-20T09:24:33;12.30;53.80
22098;DHT22;11215;51.938;8.464;2023-04-20T09:26:59;12.40;53.80
22098;DHT22;11215;51.938;8.464;2023-04-20T09:29:27;12.40;54.20
22098;DHT22;11215;51.938;8.464;2023-04-20T09:31:53;12.40;53.60
22098;DHT22;11215;51.938;8.464;2023-04-20T09:34:19;12.50;53.60
22098;DHT22;11215;51.938;8.464;2023-04-20T09:36:47;12.50;53.50
22098;DHT22;11215;51.938;8.464;2023-04-20T09:39:17;12.60;53.60
22098;DHT22;11215;51.938;8.464;2023-04-20T09:41:44;12.60;53.60
22098;DHT22;11215;51.938;8.464;2023-04-20T09:44:11;12.70;53.60
22098;DHT22;11215;51.938;8.464;2023-04-20T09:46:40;12.70;53.40
22098;DHT22;11215;51.938;8.464;2023-04-20T09:49:08;12.80;54.00
22098;DHT22;11215;51.938;8.464;2023-04-20T09:51:39;12.90;53.20
22098;DHT22;11215;51.938;8.464;2023-04-20T09:54:06;12.90;53.10
22098;DHT22;11215;51.938;8.464;2023-04-20T09:56:33;13.00;53.00
22098;DHT22;11215;51.938;8.464;2023-04-20T09:59:00;13.10;52.90
22098;DHT22;11215;51.938;8.464;2023-04-20T10:01:32;13.10;52.60
22098;DHT22;11215;51.938;8.464;2023-04-20T10:04:01;13.20;52.40
22098;DHT22;11215;51.938;8.464;2023-04-20T10:06:31;13.20;52.40
22098;DHT22;11215;51.938;8.464;2023-04-20T10:08:59;13.30;52.40
22098;DHT22;11215;51.938;8.464;2023-04-20T10:11:34;13.30;52.20
22098;DHT22;11215;51.938;8.464;2023-04-20T10:14:18;13.30;52.00
22098;DHT22;11215;51.938;8.464;2023-04-20T10:16:44;13.40;51.90
22098;DHT22;11215;51.938;8.464;2023-04-20T10:19:11;13.40;51.80
22098;DHT22;11215;51.938;8.464;2023-04-20T10:21:48;13.40;51.70
22098;DHT22;11215;51.938;8.464;2023-04-20T10:24:15;13.50;51.40
22098;DHT22;11215;51.938;8.464;2023-04-20T10:26:43;13.50;51.50
22098;DHT22;11215;51.938;8.464;2023-04-20T10:29:10;13.50;51.20
22098;DHT22;11215;51.938;8.464;2023-04-20T10:31:40;13.50;51.00
22098;DHT22;11215;51.938;8.464;2023-04-20T10:34:07;13.50;51.00
22098;DHT22;11215;51.938;8.464;2023-04-20T10:36:35;13.50;51.10
22098;DHT22;11215;51.938;8.464;2023-04-20T10:39:16;13.50;51.10
22098;DHT22;11215;51.938;8.464;2023-04-20T10:41:55;13.50;51.20
22098;DHT22;11215;51.938;8.464;2023-04-20T10:44:25;13.50;51.10
22098;DHT22;11215;51.938;8.464;2023-04-20T10:46:52;13.50;51.20
22098;DHT22;11215;51.938;8.464;2023-04-20T10:49:18;13.50;51.20
22098;DHT22;11215;51.938;8.464;2023-04-20T10:51:50;13.60;51.30
22098;DHT22;11215;51.938;8.464;2023-04-20T10:54:16;13.60;51.30
22098;DHT22;11215;51.938;8.464;2023-04-20T10:56:49;13.70;51.20
22098;DHT22;11215;51.938;8.464;2023-04-20T10:59:18;13.70;51.00
22098;DHT22;11215;51.938;8.464;2023-04-20T11:01:45;13.80;51.20
22098;DHT22;11215;51.938;8.464;2023-04-20T11:04:12;13.80;51.20
22098;DHT22;11215;51.938;8.464;2023-04-20T11:06:39;13.90;51.20
22098;DHT22;11215;51.938;8.464;2023-04-20T11:09:35;14.00;51.30
22098;DHT22;11215;51.938;8.464;2023-04-20T11:12:10;14.10;51.40
22098;DHT22;11215;51.938;8.464;2023-04-20T11:14:54;14.20;51.10
22098;DHT22;11215;51.938;8.464;2023-04-20T11:17:33;14.30;51.10
22098;DHT22;11215;51.938;8.464;2023-04-20T11:20:10;14.30;50.90
22098;DHT22;11215;51.938;8.464;2023-04-20T11:22:37;14.40;50.50
22098;DHT22;11215;51.938;8.464;2023-04-20T11:25:08;14.40;50.50
22098;DHT22;11215;51.938;8.464;2023-04-20T11:27:35;14.50;50.20
22098;DHT22;11215;51.938;8.464;2023-04-20T11:30:02;14.60;50.00
22098;DHT22;11215;51.938;8.464;2023-04-20T11:32:33;14.60;50.00
22098;DHT22;11215;51.938;8.464;2023-04-20T11:35:07;14.60;50.00
22098;DHT22;11215;51.938;8.464;2023-04-20T11:37:53;14.70;49.70
22098;DHT22;11215;51.938;8.464;2023-04-20T11:40:22;14.80;49.60
22098;DHT22;11215;51.938;8.464;2023-04-20T11:42:47;14.80;49.70
22098;DHT22;11215;51.938;8.464;2023-04-20T11:45:13;14.90;49.70
22098;DHT22;11215;51.938;8.464;2023-04-20T11:47:38;14.90;49.60
22098;DHT22;11215;51.938;8.464;2023-04-20T11:50:07;15.00;49.50
22098;DHT22;11215;51.938;8.464;2023-04-20T11:52:34;15.00;49.30
22098;DHT22;11215;51.938;8.464;2023-04-20T11:55:00;15.00;49.00
22098;DHT22;11215;51.938;8.464;2023-04-20T11:57:26;15.10;48.90
22098;DHT22;11215;51.938;8.464;2023-04-20T11:59:51;15.10;48.90
22098;DHT22;11215;51.938;8.464;2023-04-20T12:02:17;15.10;48.90
22098;DHT22;11215;51.938;8.464;2023-04-20T12:04:42;15.10;48.70
22098;DHT22;11215;51.938;8.464;2023-04-20T12:07:08;15.10;48.60
22098;DHT22;11215;51.938;8.464;2023-04-20T12:09:34;15.10;48.50
22098;DHT22;11215;51.938;8.464;2023-04-20T12:12:04;15.10;48.50
22098;DHT22;11215;51.938;8.464;2023-04-20T12:14:30;15.20;48.20
22098;DHT22;11215;51.938;8.464;2023-04-20T12:16:58;15.20;48.30
22098;DHT22;11215;51.938;8.464;2023-04-20T12:19:24;15.20;48.30
22098;DHT22;11215;51.938;8.464;2023-04-20T12:21:50;15.20;48.40
22098;DHT22;11215;51.938;8.464;2023-04-20T12:24:15;15.30;48.50
22098;DHT22;11215;51.938;8.464;2023-04-20T12:26:41;15.30;48.50
22098;DHT22;11215;51.938;8.464;2023-04-20T12:29:07;15.40;48.40
22098;DHT22;11215;51.938;8.464;2023-04-20T12:31:32;15.50;48.40
22098;DHT22;11215;51.938;8.464;2023-04-20T12:33:58;15.60;48.30
22098;DHT22;11215;51.938;8.464;2023-04-20T12:36:24;15.60;47.90
22098;DHT22;11215;51.938;8.464;2023-04-20T12:38:50;15.70;47.80
22098;DHT22;11215;51.938;8.464;2023-04-20T12:41:19;15.70;47.40
22098;DHT22;11215;51.938;8.464;2023-04-20T12:43:47;15.70;47.20
22098;DHT22;11215;51.938;8.464;2023-04-20T12:46:13;15.80;47.40
22098;DHT22;11215;51.938;8.464;2023-04-20T12:48:39;15.80;47.40
22098;DHT22;11215;51.938;8.464;2023-04-20T12:51:06;15.80;47.30
22098;DHT22;11215;51.938;8.464;2023-04-20T12:53:31;15.90;47.20
22098;DHT22;11215;51.938;8.464;2023-04-20T12:55:57;15.80;46.90
22098;DHT22;11215;51.938;8.464;2023-04-20T12:58:24;15.90;47.00
22098;DHT22;11215;51.938;8.464;2023-04-20T13:00:49;15.90;46.70
22098;DHT22;11215;51.938;8.464;2023-04-20T13:03:15;15.90;46.50
22098;DHT22;11215;51.938;8.464;2023-04-20T13:05:41;15.90;46.40
22098;DHT22;11215;51.938;8.464;2023-04-20T13:08:09;15.90;46.40
22098;DHT22;11215;51.938;8.464;2023-04-20T13:10:37;15.90;46.20
22098;DHT22;11215;51.938;8.464;2023-04-20T13:13:03;15.90;46.30
22098;DHT22;11215;51.938;8.464;2023-04-20T13:15:29;15.90;46.30
22098;DHT22;11215;51.938;8.464;2023-04-20T13:17:55;15.90;46.20
22098;DHT22;11215;51.938;8.464;2023-04-20T13:20:21;15.90;46.30
22098;DHT22;11215;51.938;8.464;2023-04-20T13:22:47;15.90;46.40
22098;DHT22;11215;51.938;8.464;2023-04-20T13:25:12;15.90;46.40
22098;DHT22;11215;51.938;8.464;2023-04-20T13:27:38;16.00;46.30
22098;DHT22;11215;51.938;8.464;2023-04-20T13:30:04;16.00;46.00
22098;DHT22;11215;51.938;8.464;2023-04-20T13:32:31;16.00;45.80
22098;DHT22;11215;51.938;8.464;2023-04-20T13:37:44;16.00;45.70
22098;DHT22;11215;51.938;8.464;2023-04-20T13:40:10;16.00;45.70
22098;DHT22;11215;51.938;8.464;2023-04-20T13:42:36;16.10;45.70
22098;DHT22;11215;51.938;8.464;2023-04-20T13:45:02;16.10;45.60
22098;DHT22;11215;51.938;8.464;2023-04-20T13:47:28;16.10;45.50
22098;DHT22;11215;51.938;8.464;2023-04-20T13:49:54;16.20;45.40
22098;DHT22;11215;51.938;8.464;2023-04-20T13:52:21;16.20;45.10
22098;DHT22;11215;51.938;8.464;2023-04-20T13:54:46;16.30;45.10
22098;DHT22;11215;51.938;8.464;2023-04-20T13:57:12;16.20;45.20
22098;DHT22;11215;51.938;8.464;2023-04-20T13:59:38;16.30;45.00
22098;DHT22;11215;51.938;8.464;2023-04-20T14:02:03;16.30;44.80
22098;DHT22;11215;51.938;8.464;2023-04-20T14:04:29;16.30;44.80
22098;DHT22;11215;51.938;8.464;2023-04-20T14:06:54;16.40;44.60
22098;DHT22;11215;51.938;8.464;2023-04-20T14:09:20;16.40;44.40
22098;DHT22;11215;51.938;8.464;2023-04-20T14:11:46;16.40;44.50
22098;DHT22;11215;51.938;8.464;2023-04-20T14:14:12;16.40;44.60
22098;DHT22;11215;51.938;8.464;2023-04-20T14:16:45;16.40;44.40
22098;DHT22;11215;51.938;8.464;2023-04-20T14:19:11;16.50;44.20
22098;DHT22;11215;51.938;8.464;2023-04-20T14:21:37;16.50;44.20
22098;DHT22;11215;51.938;8.464;2023-04-20T14:24:05;16.50;44.20
22098;DHT22;11215;51.938;8.464;2023-04-20T14:26:31;16.60;44.40
22098;DHT22;11215;51.938;8.464;2023-04-20T14:28:57;16.60;44.20
22098;DHT22;11215;51.938;8.464;2023-04-20T14:31:22;16.60;44.20
22098;DHT22;11215;51.938;8.464;2023-04-20T14:33:48;16.70;44.00
22098;DHT22;11215;51.938;8.464;2023-04-20T14:36:14;16.70;43.80
22098;DHT22;11215;51.938;8.464;2023-04-20T14:38:40;16.70;43.60
22098;DHT22;11215;51.938;8.464;2023-04-20T14:41:06;16.70;43.40
22098;DHT22;11215;51.938;8.464;2023-04-20T14:43:31;16.70;43.40
22098;DHT22;11215;51.938;8.464;2023-04-20T14:45:59;16.70;43.40
22098;DHT22;11215;51.938;8.464;2023-04-20T14:48:25;16.70;43.40
22098;DHT22;11215;51.938;8.464;2023-04-20T14:50:52;16.70;43.40
22098;DHT22;11215;51.938;8.464;2023-04-20T14:53:19;16.70;43.50
22098;DHT22;11215;51.938;8.464;2023-04-20T14:55:45;16.70;43.40
22098;DHT22;11215;51.938;8.464;2023-04-20T14:58:10;16.60;43.20
22098;DHT22;11215;51.938;8.464;2023-04-20T15:00:36;16.60;43.10
22098;DHT22;11215;51.938;8.464;2023-04-20T15:03:02;16.60;42.90
22098;DHT22;11215;51.938;8.464;2023-04-20T15:05:28;16.50;42.90
22098;DHT22;11215;51.938;8.464;2023-04-20T15:07:55;16.40;42.80
22098;DHT22;11215;51.938;8.464;2023-04-20T15:10:21;16.40;43.00
22098;DHT22;11215;51.938;8.464;2023-04-20T15:12:47;16.30;43.10
22098;DHT22;11215;51.938;8.464;2023-04-20T15:15:14;16.20;43.10
22098;DHT22;11215;51.938;8.464;2023-04-20T15:17:40;16.20;43.20
22098;DHT22;11215;51.938;8.464;2023-04-20T15:20:07;16.10;43.00
22098;DHT22;11215;51.938;8.464;2023-04-20T15:22:33;16.00;43.10
22098;DHT22;11215;51.938;8.464;2023-04-20T15:25:00;16.00;43.30
22098;DHT22;11215;51.938;8.464;2023-04-20T15:27:25;15.90;43.40
22098;DHT22;11215;51.938;8.464;2023-04-20T15:29:51;15.80;43.50
22098;DHT22;11215;51.938;8.464;2023-04-20T15:32:17;15.80;43.60